Time;durP1;ratioP1;P1;durP2;ratioP2;P2;SDS_P1;SDS_P2;PMS_P1;PMS_P2;Temp;Humidity;BMP_temperature;BMP_pressure;BME280_temperature;BME280_humidity;BME280_pressure;Samples;Min_cycle;Max_cycle;Signal;HPM_P1;HPM_P2
2021/10/13 00:01:32;;;;;;;28.65;26.55;;;;;;;;;;5093710;28;20220;-87
2021/10/13 00:04:00;;;;;;;30.55;28.08;;;;;;;;;;5093768;28;20205;-88
2021/10/13 00:06:28;;;;;;;29.45;27.35;;;;;;;;;;5096904;28;20197;-86
2021/10/13 00:08:55;;;;;;;28.75;26.85;;;;;;;;;;5097899;28;20194;-88
2021/10/13 00:11:23;;;;;;;29.98;27.85;;;;;;;;;;5097602;28;20196;-86
2021/10/13 00:13:51;;;;;;;27.85;25.75;;;;;;;;;;5097769;28;20195;-88
2021/10/13 00:16:19;;;;;;;27.33;25.60;;;;;;;;;;5097708;28;20203;-88
2021/10/13 00:18:46;;;;;;;28.23;26.13;;;;;;;;;;5097352;28;20223;-87
2021/10/13 00:21:14;;;;;;;29.20;27.10;;;;;;;;;;5097474;28;20224;-88
2021/10/13 00:23:41;;;;;;;28.40;26.30;;;;;;;;;;5097238;28;20192;-88
2021/10/13 00:26:08;;;;;;;27.80;25.88;;;;;;;;;;5097349;28;20192;-88
2021/10/13 00:28:36;;;;;;;27.40;25.52;;;;;;;;;;5097450;28;20219;-88
2021/10/13 00:31:04;;;;;;;28.70;26.45;;;;;;;;;;5097346;28;20307;-88
2021/10/13 00:33:32;;;;;;;29.30;27.05;;;;;;;;;;5097434;28;20193;-88
2021/10/13 00:35:59;;;;;;;29.65;27.23;;;;;;;;;;5097372;28;20211;-88
2021/10/13 00:38:27;;;;;;;28.92;26.80;;;;;;;;;;5097353;28;20189;-88
2021/10/13 00:40:55;;;;;;;29.15;26.50;;;;;;;;;;5097216;28;20208;-88
2021/10/13 00:43:22;;;;;;;29.00;26.60;;;;;;;;;;5097179;28;20188;-88
2021/10/13 00:45:51;;;;;;;29.58;27.55;;;;;;;;;;5097257;28;20561;-88
2021/10/13 00:48:21;;;;;;;28.27;25.75;;;;;;;;;;5097050;28;20588;-88
2021/10/13 00:50:48;;;;;;;28.73;26.38;;;;;;;;;;5097036;28;20288;-88
2021/10/13 00:53:17;;;;;;;29.30;27.00;;;;;;;;;;5097010;28;20194;-88
2021/10/13 00:55:44;;;;;;;29.98;27.65;;;;;;;;;;5097001;28;20716;-88
2021/10/13 00:58:11;;;;;;;29.75;26.17;;;;;;;;;;5096579;28;20653;-88
2021/10/13 01:00:42;;;;;;;28.73;26.63;;;;;;;;;;5096658;28;20651;-88
2021/10/13 01:03:13;;;;;;;30.27;27.80;;;;;;;;;;5096707;28;20224;-87
2021/10/13 01:05:52;;;;;;;29.67;27.30;;;;;;;;;;5097043;28;20574;-88
2021/10/13 01:08:23;;;;;;;59.63;31.63;;;;;;;;;;5096990;28;20197;-88
2021/10/13 01:10:56;;;;;;;36.72;28.35;;;;;;;;;;5096435;28;20193;-88
2021/10/13 01:13:26;;;;;;;32.00;29.27;;;;;;;;;;5096704;28;20567;-86
2021/10/13 01:15:57;;;;;;;33.00;29.48;;;;;;;;;;5095289;28;20219;-87
2021/10/13 01:18:27;;;;;;;32.20;28.77;;;;;;;;;;5096427;28;20246;-88
2021/10/13 01:21:14;;;;;;;49.70;31.15;;;;;;;;;;5096230;28;20213;-87
2021/10/13 01:23:53;;;;;;;61.67;32.28;;;;;;;;;;5096369;28;20210;-87
2021/10/13 01:26:26;;;;;;;102.75;34.47;;;;;;;;;;5096371;28;20545;-88
2021/10/13 01:28:57;;;;;;;43.13;30.13;;;;;;;;;;5095031;28;20257;-88
2021/10/13 01:31:27;;;;;;;63.45;30.38;;;;;;;;;;5095834;28;20199;-88
2021/10/13 01:33:57;;;;;;;40.22;31.23;;;;;;;;;;5096146;28;20196;-88
2021/10/13 01:36:25;;;;;;;73.95;33.22;;;;;;;;;;5094791;28;20209;-88
2021/10/13 01:38:54;;;;;;;104.95;35.80;;;;;;;;;;5094942;28;20259;-88
2021/10/13 01:41:22;;;;;;;87.35;33.45;;;;;;;;;;5096062;28;20564;-88
2021/10/13 01:43:51;;;;;;;68.70;32.40;;;;;;;;;;5096140;28;20201;-88
2021/10/13 01:46:22;;;;;;;70.95;31.75;;;;;;;;;;5094846;28;20250;-88
2021/10/13 01:48:50;;;;;;;113.88;33.63;;;;;;;;;;5095738;28;20194;-88
2021/10/13 01:51:18;;;;;;;81.03;34.80;;;;;;;;;;5095630;28;20196;-87
2021/10/13 01:53:46;;;;;;;108.40;36.55;;;;;;;;;;5095739;28;20190;-88
2021/10/13 01:56:14;;;;;;;87.85;36.10;;;;;;;;;;5095541;28;20236;-88
2021/10/13 01:58:44;;;;;;;61.13;33.08;;;;;;;;;;5095702;28;20211;-86
2021/10/13 02:01:14;;;;;;;82.45;34.90;;;;;;;;;;5095717;28;20192;-88
2021/10/13 02:03:45;;;;;;;87.07;36.80;;;;;;;;;;5095606;28;20217;-88
2021/10/13 02:06:12;;;;;;;89.80;35.83;;;;;;;;;;5095405;28;20196;-88
2021/10/13 02:08:41;;;;;;;112.13;36.83;;;;;;;;;;5094267;28;20262;-87
2021/10/13 02:11:10;;;;;;;141.77;40.53;;;;;;;;;;5077706;28;20655;-88
2021/10/13 02:13:38;;;;;;;120.30;39.70;;;;;;;;;;5095640;28;20200;-88
2021/10/13 02:16:08;;;;;;;87.10;35.60;;;;;;;;;;5095472;28;20189;-87
2021/10/13 02:18:36;;;;;;;113.43;37.08;;;;;;;;;;5095021;28;20264;-88
2021/10/13 02:21:06;;;;;;;155.65;39.92;;;;;;;;;;5095277;28;20204;-87
2021/10/13 02:23:34;;;;;;;157.13;44.58;;;;;;;;;;5094878;28;20217;-88
2021/10/13 02:26:05;;;;;;;80.72;36.33;;;;;;;;;;5095084;28;20189;-87
2021/10/13 02:28:33;;;;;;;83.45;36.65;;;;;;;;;;5094731;28;20630;-88
2021/10/13 02:31:00;;;;;;;106.75;39.00;;;;;;;;;;5095274;28;20189;-88
2021/10/13 02:33:28;;;;;;;83.43;39.17;;;;;;;;;;5095198;28;20221;-86
2021/10/13 02:35:55;;;;;;;156.70;42.50;;;;;;;;;;5094970;28;20188;-88
2021/10/13 02:38:24;;;;;;;184.55;43.22;;;;;;;;;;5095064;28;20190;-88
2021/10/13 02:40:51;;;;;;;204.43;42.83;;;;;;;;;;5094738;28;20592;-87
2021/10/13 02:43:19;;;;;;;129.25;40.80;;;;;;;;;;5094597;28;20217;-87
2021/10/13 02:45:51;;;;;;;123.93;39.30;;;;;;;;;;5093626;28;20250;-87
2021/10/13 02:48:21;;;;;;;97.57;37.50;;;;;;;;;;5094492;28;20201;-88
2021/10/13 02:50:50;;;;;;;146.23;42.47;;;;;;;;;;5094623;28;20200;-88
2021/10/13 02:53:19;;;;;;;168.43;43.53;;;;;;;;;;5094813;28;20199;-87
2021/10/13 02:55:49;;;;;;;128.77;39.13;;;;;;;;;;5094646;28;20200;-87
2021/10/13 02:58:19;;;;;;;71.50;34.25;;;;;;;;;;5094814;28;20195;-88
2021/10/13 03:00:48;;;;;;;96.25;36.55;;;;;;;;;;5094780;28;20194;-87
2021/10/13 03:03:18;;;;;;;127.43;40.55;;;;;;;;;;5094305;28;20218;-87
2021/10/13 03:05:47;;;;;;;77.95;35.47;;;;;;;;;;5094363;28;20650;-88
2021/10/13 03:08:16;;;;;;;103.45;39.35;;;;;;;;;;5094605;28;20207;-87
2021/10/13 03:10:47;;;;;;;81.43;33.50;;;;;;;;;;5093164;28;20261;-87
2021/10/13 03:13:16;;;;;;;156.75;41.00;;;;;;;;;;5094372;28;20208;-87
2021/10/13 03:15:44;;;;;;;84.25;34.10;;;;;;;;;;5094253;28;20204;-87
2021/10/13 03:18:12;;;;;;;92.30;37.03;;;;;;;;;;5094015;28;20222;-88
2021/10/13 03:20:41;;;;;;;106.55;36.55;;;;;;;;;;5094368;28;20399;-87
2021/10/13 03:23:12;;;;;;;114.47;40.83;;;;;;;;;;5094459;28;20249;-87
2021/10/13 03:25:39;;;;;;;100.72;38.90;;;;;;;;;;5094335;28;20205;-88
2021/10/13 03:28:06;;;;;;;70.20;36.90;;;;;;;;;;5094058;28;20185;-87
2021/10/13 03:30:35;;;;;;;119.45;38.47;;;;;;;;;;5093987;28;20665;-87
2021/10/13 03:33:03;;;;;;;95.60;35.40;;;;;;;;;;5094372;28;20193;-88
2021/10/13 03:35:31;;;;;;;137.30;40.55;;;;;;;;;;5094269;28;20189;-87
2021/10/13 03:38:00;;;;;;;74.67;34.83;;;;;;;;;;5093873;28;20220;-87
2021/10/13 03:40:28;;;;;;;58.55;33.22;;;;;;;;;;5097946;28;20420;-88
2021/10/13 03:42:55;;;;;;;63.85;33.33;;;;;;;;;;5097163;28;20232;-87
2021/10/13 03:45:23;;;;;;;53.30;32.85;;;;;;;;;;5098548;28;20196;-88
2021/10/13 03:47:52;;;;;;;80.10;35.42;;;;;;;;;;5098086;28;20188;-87
2021/10/13 03:50:20;;;;;;;68.78;33.70;;;;;;;;;;5098206;28;20200;-88
2021/10/13 03:52:48;;;;;;;64.85;33.00;;;;;;;;;;5098300;28;20193;-88
2021/10/13 03:55:16;;;;;;;49.95;34.35;;;;;;;;;;5097924;28;20197;-88
2021/10/13 03:57:44;;;;;;;57.92;31.83;;;;;;;;;;5097346;28;20682;-86
2021/10/13 04:00:14;;;;;;;71.75;33.30;;;;;;;;;;5097652;28;20554;-87
2021/10/13 04:02:41;;;;;;;79.18;34.00;;;;;;;;;;5097445;28;20212;-88
2021/10/13 04:05:10;;;;;;;55.88;34.80;;;;;;;;;;5097926;28;20659;-88
2021/10/13 04:07:38;;;;;;;54.30;34.17;;;;;;;;;;5097912;28;20190;-89
2021/10/13 04:10:06;;;;;;;62.72;33.75;;;;;;;;;;5097649;28;20250;-88
2021/10/13 04:12:34;;;;;;;53.60;32.47;;;;;;;;;;5097525;28;20218;-87
2021/10/13 04:15:01;;;;;;;56.55;33.97;;;;;;;;;;5097849;28;20435;-86
2021/10/13 04:17:29;;;;;;;66.53;35.53;;;;;;;;;;5097644;28;20220;-86
2021/10/13 04:19:56;;;;;;;63.17;34.00;;;;;;;;;;5097393;28;20631;-87
2021/10/13 04:22:25;;;;;;;78.93;36.38;;;;;;;;;;5097302;28;20220;-87
2021/10/13 04:24:52;;;;;;;88.60;36.45;;;;;;;;;;5097573;28;20620;-86
2021/10/13 04:27:20;;;;;;;78.93;36.33;;;;;;;;;;5097526;28;20189;-86
2021/10/13 04:29:47;;;;;;;33.53;29.95;;;;;;;;;;5097905;28;20212;-87
2021/10/13 04:32:14;;;;;;;76.78;36.53;;;;;;;;;;5097353;28;20193;-87
2021/10/13 04:34:42;;;;;;;124.90;45.38;;;;;;;;;;5097180;28;20588;-86
2021/10/13 04:37:09;;;;;;;95.07;37.78;;;;;;;;;;5097265;28;20193;-87
2021/10/13 04:39:38;;;;;;;168.13;46.53;;;;;;;;;;5097440;28;20196;-87
2021/10/13 04:42:05;;;;;;;60.72;36.15;;;;;;;;;;5097134;28;20197;-86
2021/10/13 04:44:33;;;;;;;67.78;35.95;;;;;;;;;;5097032;28;20196;-87
2021/10/13 04:47:00;;;;;;;79.13;36.08;;;;;;;;;;5096933;28;20198;-86
2021/10/13 04:49:27;;;;;;;78.95;38.80;;;;;;;;;;5096965;28;20200;-87
2021/10/13 04:51:55;;;;;;;102.43;38.88;;;;;;;;;;5097063;28;20197;-87
2021/10/13 04:54:23;;;;;;;65.97;39.33;;;;;;;;;;5097006;28;20336;-86
2021/10/13 04:56:52;;;;;;;103.63;42.25;;;;;;;;;;5096345;28;20253;-87
2021/10/13 04:59:19;;;;;;;127.93;44.75;;;;;;;;;;5096779;28;20638;-87
2021/10/13 05:01:47;;;;;;;116.85;40.30;;;;;;;;;;5096619;28;20186;-87
2021/10/13 05:04:14;;;;;;;82.03;39.25;;;;;;;;;;5096595;28;20221;-87
2021/10/13 05:06:43;;;;;;;85.78;38.92;;;;;;;;;;5096906;28;20197;-87
2021/10/13 05:09:10;;;;;;;119.57;44.30;;;;;;;;;;5096770;28;20232;-87
2021/10/13 05:11:37;;;;;;;85.43;36.65;;;;;;;;;;5096605;28;20466;-87
2021/10/13 05:14:06;;;;;;;74.18;37.13;;;;;;;;;;5096691;28;20199;-87
2021/10/13 05:16:34;;;;;;;122.65;42.20;;;;;;;;;;5096899;28;20201;-86
2021/10/13 05:19:01;;;;;;;91.90;41.33;;;;;;;;;;5095177;28;20231;-87
2021/10/13 05:21:29;;;;;;;102.38;39.15;;;;;;;;;;5096226;28;20189;-86
2021/10/13 05:23:56;;;;;;;95.00;38.28;;;;;;;;;;5096333;28;20224;-87
2021/10/13 05:26:24;;;;;;;58.97;36.25;;;;;;;;;;5096400;28;20190;-87
2021/10/13 05:28:51;;;;;;;85.72;38.15;;;;;;;;;;5096465;28;20189;-87
2021/10/13 05:31:20;;;;;;;76.70;38.42;;;;;;;;;;5096180;28;20208;-87
2021/10/13 05:33:47;;;;;;;70.28;35.70;;;;;;;;;;5096482;28;20224;-87
2021/10/13 05:36:15;;;;;;;95.43;38.38;;;;;;;;;;5096210;28;20193;-87
2021/10/13 05:38:42;;;;;;;64.22;35.92;;;;;;;;;;5096447;28;20184;-87
2021/10/13 05:41:09;;;;;;;57.17;36.42;;;;;;;;;;5096198;28;20193;-87
2021/10/13 05:43:37;;;;;;;84.30;36.10;;;;;;;;;;5096194;28;20224;-86
2021/10/13 05:46:04;;;;;;;104.57;40.10;;;;;;;;;;5096011;28;20192;-87
2021/10/13 05:48:33;;;;;;;99.72;40.33;;;;;;;;;;5096142;28;20190;-87
2021/10/13 05:51:01;;;;;;;54.42;36.67;;;;;;;;;;5095874;28;20575;-86
2021/10/13 05:53:29;;;;;;;80.97;37.63;;;;;;;;;;5095607;28;20204;-87
2021/10/13 05:55:56;;;;;;;65.75;40.60;;;;;;;;;;5094212;28;20203;-87
2021/10/13 05:58:25;;;;;;;117.57;43.05;;;;;;;;;;5095834;28;20197;-86
2021/10/13 06:00:53;;;;;;;129.40;43.67;;;;;;;;;;5095566;28;20648;-86
2021/10/13 06:03:21;;;;;;;105.05;43.72;;;;;;;;;;5095122;28;20598;-87
2021/10/13 06:05:50;;;;;;;135.55;44.40;;;;;;;;;;5095629;28;20198;-87
2021/10/13 06:08:17;;;;;;;115.40;44.67;;;;;;;;;;5094471;28;20199;-87
2021/10/13 06:10:44;;;;;;;69.28;39.08;;;;;;;;;;5095490;28;20197;-86
2021/10/13 06:13:12;;;;;;;92.72;40.30;;;;;;;;;;5095639;28;20193;-86
2021/10/13 06:15:40;;;;;;;127.25;45.08;;;;;;;;;;5094219;28;20224;-86
2021/10/13 06:18:08;;;;;;;74.68;39.53;;;;;;;;;;5095278;28;20225;-86
2021/10/13 06:20:35;;;;;;;51.33;38.38;;;;;;;;;;5094859;28;20201;-86
2021/10/13 06:23:04;;;;;;;93.22;43.63;;;;;;;;;;5095094;28;20309;-84
2021/10/13 06:25:32;;;;;;;98.65;45.50;;;;;;;;;;5094819;28;20216;-86
2021/10/13 06:28:00;;;;;;;103.47;43.33;;;;;;;;;;5094899;28;20197;-86
2021/10/13 06:30:28;;;;;;;76.22;41.35;;;;;;;;;;5094620;28;20190;-85
2021/10/13 06:32:55;;;;;;;84.80;41.15;;;;;;;;;;5094785;28;20191;-85
2021/10/13 06:35:23;;;;;;;68.38;39.38;;;;;;;;;;5094807;28;20742;-84
2021/10/13 06:37:51;;;;;;;81.93;40.78;;;;;;;;;;5094756;28;20197;-86
2021/10/13 06:40:20;;;;;;;89.10;40.55;;;;;;;;;;5094618;28;20225;-87
2021/10/13 06:42:47;;;;;;;99.05;41.72;;;;;;;;;;5094799;28;20201;-85
2021/10/13 06:45:15;;;;;;;92.65;41.25;;;;;;;;;;5094567;28;20601;-84
2021/10/13 06:47:42;;;;;;;66.13;37.67;;;;;;;;;;5094149;28;20202;-85
2021/10/13 06:50:10;;;;;;;98.13;39.78;;;;;;;;;;5093245;28;20255;-86
2021/10/13 06:52:38;;;;;;;53.30;38.20;;;;;;;;;;5094787;28;20557;-86
2021/10/13 06:55:06;;;;;;;52.67;40.00;;;;;;;;;;5094470;28;20233;-87
2021/10/13 06:57:35;;;;;;;61.40;40.58;;;;;;;;;;5094022;28;20214;-85
2021/10/13 07:00:02;;;;;;;84.50;40.80;;;;;;;;;;5094284;28;20204;-84
2021/10/13 07:02:29;;;;;;;55.45;40.15;;;;;;;;;;5094387;28;20198;-85
2021/10/13 07:04:57;;;;;;;52.15;39.00;;;;;;;;;;5093963;28;20217;-85
2021/10/13 07:07:24;;;;;;;59.85;36.83;;;;;;;;;;5094376;28;20183;-84
2021/10/13 07:09:51;;;;;;;71.28;44.35;;;;;;;;;;5094225;28;20573;-84
2021/10/13 07:12:19;;;;;;;57.60;39.40;;;;;;;;;;5093905;28;20189;-85
2021/10/13 07:14:48;;;;;;;65.50;37.13;;;;;;;;;;5092969;28;20421;-85
2021/10/13 07:17:16;;;;;;;66.72;40.95;;;;;;;;;;5094009;28;20224;-85
2021/10/13 07:19:44;;;;;;;50.83;37.65;;;;;;;;;;5092591;28;20202;-83
2021/10/13 07:22:12;;;;;;;87.80;43.55;;;;;;;;;;5093896;28;20531;-85
2021/10/13 07:24:40;;;;;;;67.60;41.45;;;;;;;;;;5093402;28;20238;-84
2021/10/13 07:27:07;;;;;;;53.90;39.60;;;;;;;;;;5093594;28;20197;-85
2021/10/13 07:29:41;;;;;;;64.05;42.28;;;;;;;;;;5093968;28;20455;-85
2021/10/13 07:32:10;;;;;;;56.10;39.53;;;;;;;;;;5093969;28;20194;-84
2021/10/13 07:34:37;;;;;;;115.50;47.10;;;;;;;;;;5093886;28;20186;-85
2021/10/13 07:37:05;;;;;;;65.18;42.05;;;;;;;;;;5093642;28;20201;-85
2021/10/13 07:39:32;;;;;;;45.28;38.72;;;;;;;;;;5093517;28;20186;-84
2021/10/13 07:42:00;;;;;;;54.10;38.10;;;;;;;;;;5092291;28;20198;-85
2021/10/13 07:44:28;;;;;;;47.00;37.90;;;;;;;;;;5093797;28;20634;-85
2021/10/13 07:46:55;;;;;;;51.65;37.92;;;;;;;;;;5093493;28;20423;-85
2021/10/13 07:49:24;;;;;;;40.17;35.70;;;;;;;;;;5093559;28;20536;-85
2021/10/13 07:51:51;;;;;;;55.50;38.40;;;;;;;;;;5093430;28;20596;-84
2021/10/13 07:54:20;;;;;;;53.50;38.58;;;;;;;;;;5092351;28;20483;-85
2021/10/13 07:56:48;;;;;;;36.13;32.60;;;;;;;;;;5093265;28;20226;-85
2021/10/13 07:59:15;;;;;;;36.47;33.10;;;;;;;;;;5093538;28;20455;-85
2021/10/13 08:01:43;;;;;;;38.43;34.57;;;;;;;;;;5093918;28;20403;-85
2021/10/13 08:04:10;;;;;;;43.55;36.97;;;;;;;;;;5093218;28;20985;-85
2021/10/13 08:06:39;;;;;;;39.57;35.30;;;;;;;;;;5093584;28;20669;-85
2021/10/13 08:09:06;;;;;;;38.87;35.03;;;;;;;;;;5093494;28;20404;-84
2021/10/13 08:11:34;;;;;;;37.43;33.30;;;;;;;;;;5093491;28;20470;-83
2021/10/13 08:14:01;;;;;;;44.50;36.17;;;;;;;;;;5093696;28;20436;-85
2021/10/13 08:16:29;;;;;;;38.60;34.43;;;;;;;;;;5093316;28;20445;-85
2021/10/13 08:18:56;;;;;;;37.60;33.70;;;;;;;;;;5093198;28;20444;-85
2021/10/13 08:21:23;;;;;;;36.97;33.00;;;;;;;;;;5093290;28;20276;-85
2021/10/13 08:23:52;;;;;;;35.37;31.80;;;;;;;;;;5093472;28;20447;-85
2021/10/13 08:26:19;;;;;;;37.17;33.77;;;;;;;;;;5096067;28;20433;-85
2021/10/13 08:28:47;;;;;;;37.42;33.47;;;;;;;;;;5096851;28;20419;-85
2021/10/13 08:31:15;;;;;;;36.45;32.92;;;;;;;;;;5096792;28;20191;-85
2021/10/13 08:33:43;;;;;;;34.33;31.10;;;;;;;;;;5095980;28;20292;-85
2021/10/13 08:36:11;;;;;;;33.63;30.80;;;;;;;;;;5097278;28;20407;-84
2021/10/13 08:38:38;;;;;;;32.50;30.02;;;;;;;;;;5096951;28;20196;-85
2021/10/13 08:41:07;;;;;;;32.10;29.10;;;;;;;;;;5096674;28;20213;-85
2021/10/13 08:43:34;;;;;;;32.10;29.30;;;;;;;;;;5096795;28;20461;-85
2021/10/13 08:46:02;;;;;;;31.37;28.80;;;;;;;;;;5097113;28;20201;-85
2021/10/13 08:48:29;;;;;;;29.23;26.93;;;;;;;;;;5096748;28;20456;-84
2021/10/13 08:50:56;;;;;;;29.98;27.45;;;;;;;;;;5096640;28;20413;-85
2021/10/13 08:53:24;;;;;;;28.33;26.33;;;;;;;;;;5096291;28;20194;-84
2021/10/13 08:55:53;;;;;;;30.30;27.80;;;;;;;;;;5096202;28;20437;-84
2021/10/13 08:58:22;;;;;;;30.00;27.67;;;;;;;;;;5096233;28;20854;-85
2021/10/13 09:00:51;;;;;;;30.80;27.73;;;;;;;;;;5096190;28;20440;-86
2021/10/13 09:03:28;;;;;;;29.05;26.75;;;;;;;;;;5096534;28;20430;-84
2021/10/13 09:05:55;;;;;;;29.07;26.67;;;;;;;;;;5096145;28;20198;-84
2021/10/13 09:08:23;;;;;;;29.50;26.80;;;;;;;;;;5096166;28;20942;-85
2021/10/13 09:10:54;;;;;;;30.20;27.90;;;;;;;;;;5096029;28;20423;-85
2021/10/13 09:13:23;;;;;;;30.00;27.60;;;;;;;;;;5096184;28;20421;-84
2021/10/13 09:15:51;;;;;;;29.47;27.17;;;;;;;;;;5096076;28;20441;-84
2021/10/13 09:18:22;;;;;;;28.97;26.40;;;;;;;;;;5096395;28;20462;-85
2021/10/13 09:20:50;;;;;;;29.27;26.70;;;;;;;;;;5096347;28;20506;-84
2021/10/13 09:23:18;;;;;;;30.60;27.40;;;;;;;;;;5095874;28;20472;-85
2021/10/13 09:26:01;;;;;;;28.30;25.93;;;;;;;;;;5094502;28;20488;-85
2021/10/13 09:28:30;;;;;;;27.90;25.90;;;;;;;;;;5096021;28;20806;-84
2021/10/13 09:30:58;;;;;;;27.43;25.33;;;;;;;;;;5096089;28;20869;-85
2021/10/13 09:33:25;;;;;;;28.37;25.97;;;;;;;;;;5095730;28;20762;-85
2021/10/13 09:35:55;;;;;;;28.60;26.40;;;;;;;;;;5095664;28;20436;-85
2021/10/13 09:38:23;;;;;;;29.43;27.07;;;;;;;;;;5095130;28;20447;-85
2021/10/13 09:40:51;;;;;;;27.90;25.60;;;;;;;;;;5095856;28;20411;-84
2021/10/13 09:43:33;;;;;;;29.93;27.57;;;;;;;;;;5095783;28;20930;-85
2021/10/13 09:46:05;;;;;;;28.87;26.77;;;;;;;;;;5095469;28;20416;-85
2021/10/13 09:48:32;;;;;;;29.00;26.77;;;;;;;;;;5095435;28;20915;-84
2021/10/13 09:51:12;;;;;;;30.20;27.60;;;;;;;;;;5095491;28;20451;-84
2021/10/13 09:53:40;;;;;;;28.83;26.57;;;;;;;;;;5095421;28;20939;-85
2021/10/13 09:56:07;;;;;;;29.80;27.50;;;;;;;;;;5093912;28;20478;-85
2021/10/13 09:58:36;;;;;;;29.23;26.63;;;;;;;;;;5094129;28;20504;-85
2021/10/13 10:01:11;;;;;;;33.30;29.77;;;;;;;;;;5095365;28;20426;-85
2021/10/13 10:03:39;;;;;;;28.07;25.97;;;;;;;;;;5095502;28;20876;-83
2021/10/13 10:06:07;;;;;;;25.67;23.80;;;;;;;;;;5095201;28;20472;-85
2021/10/13 10:08:49;;;;;;;26.83;24.73;;;;;;;;;;5094924;28;20415;-85
2021/10/13 10:11:16;;;;;;;27.63;25.73;;;;;;;;;;5082615;28;20460;-85
2021/10/13 10:13:48;;;;;;;26.60;24.67;;;;;;;;;;5095428;28;20423;-85
2021/10/13 10:16:27;;;;;;;28.93;26.20;;;;;;;;;;5095238;28;20415;-85
2021/10/13 10:18:55;;;;;;;27.00;25.10;;;;;;;;;;5094824;28;20503;-84
2021/10/13 10:21:23;;;;;;;27.93;25.47;;;;;;;;;;5094890;28;20414;-85
2021/10/13 10:23:51;;;;;;;27.30;25.27;;;;;;;;;;5095186;28;20797;-85
2021/10/13 10:26:32;;;;;;;28.10;25.90;;;;;;;;;;5095014;28;20746;-85
2021/10/13 10:29:02;;;;;;;26.57;24.60;;;;;;;;;;5094801;28;20447;-84
2021/10/13 10:31:40;;;;;;;26.83;24.83;;;;;;;;;;5094607;28;20999;-85
2021/10/13 10:34:08;;;;;;;26.13;23.90;;;;;;;;;;5094542;28;20422;-85
2021/10/13 10:36:51;;;;;;;26.70;24.43;;;;;;;;;;5094636;28;20440;-85
2021/10/13 10:39:19;;;;;;;27.33;25.20;;;;;;;;;;5094580;28;20428;-85
2021/10/13 10:41:47;;;;;;;25.60;23.53;;;;;;;;;;5094652;28;20443;-85
2021/10/13 10:44:32;;;;;;;25.83;24.20;;;;;;;;;;5094682;28;20718;-84
2021/10/13 10:47:00;;;;;;;25.87;23.73;;;;;;;;;;5094576;28;20426;-85
2021/10/13 10:49:42;;;;;;;25.73;23.60;;;;;;;;;;5094127;28;20468;-84
2021/10/13 10:52:09;;;;;;;24.03;22.40;;;;;;;;;;5093906;28;20418;-85
2021/10/13 10:54:37;;;;;;;24.57;23.07;;;;;;;;;;5094578;28;20442;-85
2021/10/13 10:57:04;;;;;;;25.93;24.30;;;;;;;;;;5093860;28;20483;-85
2021/10/13 10:59:40;;;;;;;24.43;22.93;;;;;;;;;;5094280;28;20403;-85
2021/10/13 11:02:09;;;;;;;25.37;23.47;;;;;;;;;;5094129;28;20415;-85
2021/10/13 11:04:36;;;;;;;25.30;23.60;;;;;;;;;;5094054;28;20943;-85
2021/10/13 11:07:04;;;;;;;25.00;23.43;;;;;;;;;;5094209;28;20447;-85
2021/10/13 11:09:32;;;;;;;25.07;23.47;;;;;;;;;;5094318;28;20415;-84
2021/10/13 11:11:59;;;;;;;25.50;24.00;;;;;;;;;;5094229;28;20422;-85
2021/10/13 11:14:26;;;;;;;24.97;23.23;;;;;;;;;;5093875;28;20513;-85
2021/10/13 11:16:57;;;;;;;24.27;22.83;;;;;;;;;;5093988;28;20443;-84
2021/10/13 11:19:28;;;;;;;24.30;22.70;;;;;;;;;;5093963;28;20416;-85
2021/10/13 11:21:56;;;;;;;24.43;22.47;;;;;;;;;;5093755;28;20450;-85
2021/10/13 11:24:24;;;;;;;25.33;23.43;;;;;;;;;;5093424;28;20453;-85
2021/10/13 11:26:51;;;;;;;24.90;23.10;;;;;;;;;;5093491;28;20445;-85
2021/10/13 11:29:20;;;;;;;25.10;23.50;;;;;;;;;;5093702;28;20415;-85
2021/10/13 11:31:47;;;;;;;26.10;24.40;;;;;;;;;;5093819;28;20429;-85
2021/10/13 11:34:19;;;;;;;24.40;22.90;;;;;;;;;;5093668;28;20893;-85
2021/10/13 11:36:54;;;;;;;24.53;22.93;;;;;;;;;;5093744;28;20466;-85
2021/10/13 11:39:26;;;;;;;24.43;22.73;;;;;;;;;;5093890;28;20770;-85
2021/10/13 11:41:54;;;;;;;24.30;22.40;;;;;;;;;;5093919;28;20455;-85
2021/10/13 11:44:23;;;;;;;23.87;21.70;;;;;;;;;;5093864;28;20408;-86
2021/10/13 11:46:55;;;;;;;22.03;20.23;;;;;;;;;;5093829;28;20423;-85
2021/10/13 11:49:24;;;;;;;22.23;20.70;;;;;;;;;;5093605;28;20429;-85
2021/10/13 11:52:05;;;;;;;22.87;21.37;;;;;;;;;;5093807;28;20419;-85
2021/10/13 11:54:32;;;;;;;20.47;19.33;;;;;;;;;;5093361;28;20924;-85
2021/10/13 11:57:00;;;;;;;21.43;20.13;;;;;;;;;;5093385;28;20455;-85
2021/10/13 11:59:27;;;;;;;20.97;19.63;;;;;;;;;;5093706;28;20407;-85
2021/10/13 12:01:55;;;;;;;22.87;21.17;;;;;;;;;;5097617;28;20791;-85
2021/10/13 12:04:24;;;;;;;22.17;20.53;;;;;;;;;;5097288;28;20425;-85
2021/10/13 12:06:51;;;;;;;21.63;20.33;;;;;;;;;;5097635;28;20415;-86
2021/10/13 12:09:18;;;;;;;22.47;20.83;;;;;;;;;;5097631;28;20422;-85
2021/10/13 12:11:46;;;;;;;21.70;19.90;;;;;;;;;;5096053;28;20452;-85
2021/10/13 12:14:14;;;;;;;21.90;20.20;;;;;;;;;;5097327;28;20426;-85
2021/10/13 12:16:42;;;;;;;22.40;20.80;;;;;;;;;;5096987;28;20510;-85
2021/10/13 12:19:13;;;;;;;20.50;19.30;;;;;;;;;;5097091;28;20415;-84
2021/10/13 12:21:58;;;;;;;21.37;20.07;;;;;;;;;;5097135;28;20410;-84
2021/10/13 12:24:25;;;;;;;21.70;20.10;;;;;;;;;;5097176;28;20461;-85
2021/10/13 12:26:52;;;;;;;21.30;19.90;;;;;;;;;;5097193;28;20536;-85
2021/10/13 12:29:20;;;;;;;21.23;19.73;;;;;;;;;;5097217;28;20448;-85
2021/10/13 12:31:47;;;;;;;21.10;19.70;;;;;;;;;;5096929;28;20408;-85
2021/10/13 12:34:16;;;;;;;20.03;18.73;;;;;;;;;;5097169;28;20436;-85
2021/10/13 12:36:51;;;;;;;20.90;19.50;;;;;;;;;;5096955;28;20455;-85
2021/10/13 12:39:22;;;;;;;20.80;19.37;;;;;;;;;;5096754;28;20436;-86
2021/10/13 12:41:50;;;;;;;21.87;20.07;;;;;;;;;;5095620;28;20445;-85
2021/10/13 12:44:18;;;;;;;20.60;19.30;;;;;;;;;;5096830;28;20476;-85
2021/10/13 12:46:53;;;;;;;20.13;18.73;;;;;;;;;;5096453;28;20465;-85
2021/10/13 12:49:22;;;;;;;20.73;19.43;;;;;;;;;;5096831;28;20440;-85
2021/10/13 12:51:53;;;;;;;21.13;19.73;;;;;;;;;;5096633;28;20555;-85
2021/10/13 12:54:20;;;;;;;20.23;18.93;;;;;;;;;;5096523;28;20433;-85
2021/10/13 12:56:48;;;;;;;20.83;19.50;;;;;;;;;;5096171;28;20447;-85
2021/10/13 12:59:15;;;;;;;20.57;19.17;;;;;;;;;;5096271;28;20422;-85
2021/10/13 13:01:42;;;;;;;20.00;18.50;;;;;;;;;;5095317;28;20449;-86
2021/10/13 13:04:10;;;;;;;20.77;19.20;;;;;;;;;;5096620;28;20418;-83
2021/10/13 13:06:37;;;;;;;20.50;19.10;;;;;;;;;;5096580;28;20461;-84
2021/10/13 13:09:06;;;;;;;20.23;18.70;;;;;;;;;;5096278;28;20437;-85
2021/10/13 13:11:33;;;;;;;19.80;18.70;;;;;;;;;;5094756;28;20412;-85
2021/10/13 13:14:01;;;;;;;19.77;18.57;;;;;;;;;;5096467;28;20408;-86
2021/10/13 13:16:28;;;;;;;20.07;18.97;;;;;;;;;;5096398;28;20419;-83
2021/10/13 13:18:56;;;;;;;19.83;18.73;;;;;;;;;;5096282;28;20404;-85
2021/10/13 13:21:24;;;;;;;19.80;18.70;;;;;;;;;;5096139;28;20420;-83
2021/10/13 13:23:51;;;;;;;19.20;18.10;;;;;;;;;;5095898;28;20440;-85
2021/10/13 13:26:20;;;;;;;19.70;18.20;;;;;;;;;;5094786;28;20604;-85
2021/10/13 13:28:48;;;;;;;20.37;19.27;;;;;;;;;;5096181;28;20417;-85
2021/10/13 13:31:15;;;;;;;20.83;19.60;;;;;;;;;;5096049;28;20467;-86
2021/10/13 13:33:43;;;;;;;20.00;18.60;;;;;;;;;;5096052;28;20412;-85
2021/10/13 13:36:11;;;;;;;20.37;19.00;;;;;;;;;;5095476;28;20426;-85
2021/10/13 13:38:39;;;;;;;20.10;18.90;;;;;;;;;;5095616;28;20464;-85
2021/10/13 13:41:06;;;;;;;20.03;18.77;;;;;;;;;;5095746;28;20441;-85
2021/10/13 13:43:35;;;;;;;19.97;18.53;;;;;;;;;;5095558;28;20516;-86
2021/10/13 13:46:03;;;;;;;20.00;18.80;;;;;;;;;;5095586;28;20480;-85
2021/10/13 13:48:31;;;;;;;20.53;19.33;;;;;;;;;;5095660;28;20407;-84
2021/10/13 13:50:59;;;;;;;19.87;18.67;;;;;;;;;;5095761;28;20434;-85
2021/10/13 13:53:26;;;;;;;20.30;18.90;;;;;;;;;;5095419;28;20419;-86
2021/10/13 13:55:54;;;;;;;21.23;19.80;;;;;;;;;;5094888;28;20459;-85
2021/10/13 13:58:22;;;;;;;20.37;18.97;;;;;;;;;;5093643;28;20441;-85
2021/10/13 14:00:51;;;;;;;19.90;18.77;;;;;;;;;;5095031;28;20825;-87
2021/10/13 14:03:18;;;;;;;20.13;18.93;;;;;;;;;;5094485;28;20445;-85
2021/10/13 14:05:45;;;;;;;20.33;18.90;;;;;;;;;;5095601;28;20546;-87
2021/10/13 14:08:13;;;;;;;20.63;19.33;;;;;;;;;;5095665;28;20432;-84
2021/10/13 14:10:40;;;;;;;20.90;19.40;;;;;;;;;;5095405;28;20444;-85
2021/10/13 14:13:08;;;;;;;21.87;20.47;;;;;;;;;;5095281;28;20437;-85
2021/10/13 14:15:35;;;;;;;20.93;19.63;;;;;;;;;;5095070;28;20425;-85
2021/10/13 14:18:04;;;;;;;20.03;18.63;;;;;;;;;;5094956;28;20472;-84
2021/10/13 14:20:32;;;;;;;21.70;20.30;;;;;;;;;;5095118;28;20457;-85
2021/10/13 14:22:59;;;;;;;19.13;17.97;;;;;;;;;;5094359;28;20421;-85
2021/10/13 14:25:26;;;;;;;20.07;18.77;;;;;;;;;;5094757;28;20476;-86